Time;durP1;ratioP1;P1;durP2;ratioP2;P2;SDS_P1;SDS_P2;PMS_P1;PMS_P2;Temp;Humidity;BMP_temperature;BMP_pressure;BME280_temperature;BME280_humidity;BME280_pressure;Samples;Min_cycle;Max_cycle;Signal;HPM_P1;HPM_P2
2021/08/23 00:01:35;;;;;;;23.85;16.35;;;15.90;99.90;;;;;;4997989;28;20030;-58
2021/08/23 00:04:01;;;;;;;18.83;14.25;;;15.80;99.90;;;;;;5000411;28;20031;-60
2021/08/23 00:06:27;;;;;;;21.75;13.73;;;15.90;99.90;;;;;;4999802;28;20179;-60
2021/08/23 00:08:52;;;;;;;22.10;14.50;;;15.90;99.90;;;;;;5001504;28;20068;-60
2021/08/23 00:11:18;;;;;;;24.45;14.85;;;15.90;99.90;;;;;;4998690;28;20828;-60
2021/08/23 00:13:43;;;;;;;21.50;13.77;;;15.90;99.90;;;;;;5001817;28;20033;-60
2021/08/23 00:16:09;;;;;;;22.33;14.77;;;15.80;99.90;;;;;;4999683;28;20398;-57
2021/08/23 00:18:34;;;;;;;20.08;15.25;;;15.70;99.90;;;;;;5000628;28;20033;-59
2021/08/23 00:21:03;;;;;;;24.02;15.32;;;15.70;99.90;;;;;;5004443;28;20469;-59
2021/08/23 00:23:35;;;;;;;26.77;16.98;;;15.60;99.90;;;;;;4993498;28;20031;-58
2021/08/23 00:26:02;;;;;;;22.88;15.75;;;15.60;99.90;;;;;;5000220;28;20038;-60
2021/08/23 00:28:27;;;;;;;25.05;16.85;;;15.60;99.90;;;;;;4999651;28;20038;-59
2021/08/23 00:30:53;;;;;;;25.27;15.65;;;15.60;99.90;;;;;;4996178;28;20038;-60
2021/08/23 00:33:18;;;;;;;23.08;15.90;;;15.50;99.90;;;;;;5002288;28;20030;-60
2021/08/23 00:35:44;;;;;;;23.88;15.88;;;15.50;99.90;;;;;;4993151;28;20471;-60
2021/08/23 00:38:10;;;;;;;20.85;15.05;;;15.40;99.90;;;;;;4997190;28;20040;-61
2021/08/23 00:40:39;;;;;;;25.98;15.45;;;15.50;99.90;;;;;;5001010;28;20105;-60
2021/08/23 00:43:06;;;;;;;24.25;15.50;;;15.50;99.90;;;;;;4999613;28;20031;-59
2021/08/23 00:45:31;;;;;;;24.48;15.52;;;15.50;99.90;;;;;;4994304;28;20367;-60
2021/08/23 00:47:58;;;;;;;21.85;15.32;;;15.40;99.90;;;;;;4996751;28;20033;-60
2021/08/23 00:50:24;;;;;;;19.52;14.52;;;15.40;99.90;;;;;;4998597;28;20115;-60
2021/08/23 00:52:51;;;;;;;23.42;15.90;;;15.30;99.90;;;;;;5001166;28;20106;-60
2021/08/23 00:55:17;;;;;;;23.35;16.55;;;15.30;99.90;;;;;;5001231;28;20425;-59
2021/08/23 00:57:43;;;;;;;23.00;16.65;;;15.20;99.90;;;;;;5000328;28;20549;-60
2021/08/23 01:00:10;;;;;;;22.42;15.68;;;15.20;99.90;;;;;;4998014;28;20036;-60
2021/08/23 01:02:49;;;;;;;18.50;14.27;;;15.20;99.90;;;;;;4998505;28;20370;-61
2021/08/23 01:05:20;;;;;;;25.17;15.52;;;15.20;99.90;;;;;;5001591;28;20025;-61
2021/08/23 01:07:52;;;;;;;21.10;14.50;;;15.20;99.90;;;;;;4997369;28;20040;-61
2021/08/23 01:10:25;;;;;;;22.27;15.43;;;15.10;99.90;;;;;;5000624;28;20427;-59
2021/08/23 01:12:52;;;;;;;25.48;16.27;;;15.10;99.90;;;;;;5001752;28;20454;-58
2021/08/23 01:15:18;;;;;;;30.08;18.42;;;15.10;99.90;;;;;;5002030;28;20107;-60
2021/08/23 01:17:43;;;;;;;26.67;17.63;;;15.00;99.90;;;;;;4997786;28;20057;-61
2021/08/23 01:20:11;;;;;;;26.65;16.92;;;15.10;99.90;;;;;;4997492;28;20050;-60
2021/08/23 01:22:42;;;;;;;23.98;15.25;;;15.20;99.90;;;;;;5002159;28;20018;-60
2021/08/23 01:25:10;;;;;;;20.08;15.48;;;15.20;99.90;;;;;;4995999;28;20061;-60
2021/08/23 01:27:38;;;;;;;21.88;16.52;;;15.30;99.90;;;;;;4999149;28;20026;-61
2021/08/23 01:30:09;;;;;;;24.63;15.68;;;15.30;99.90;;;;;;5007573;28;20053;-61
2021/08/23 01:32:35;;;;;;;23.73;15.85;;;15.20;99.90;;;;;;5008868;28;20030;-60
2021/08/23 01:35:03;;;;;;;23.73;17.20;;;15.20;99.90;;;;;;5004370;28;20030;-60
2021/08/23 01:37:31;;;;;;;27.55;16.55;;;15.20;99.90;;;;;;5000799;28;20121;-60
2021/08/23 01:39:58;;;;;;;28.05;17.48;;;15.20;99.90;;;;;;5004443;28;20109;-61
2021/08/23 01:42:23;;;;;;;24.90;17.52;;;15.20;99.90;;;;;;5002555;28;20511;-60
2021/08/23 01:44:49;;;;;;;25.75;17.50;;;15.10;99.90;;;;;;4999305;28;20030;-60
2021/08/23 01:47:14;;;;;;;26.20;17.05;;;15.10;99.90;;;;;;5001577;28;20029;-60
2021/08/23 01:49:40;;;;;;;27.80;16.60;;;15.10;99.90;;;;;;4996015;28;20458;-60
2021/08/23 01:52:10;;;;;;;21.95;16.23;;;15.10;99.90;;;;;;4997237;28;20036;-60
2021/08/23 01:54:37;;;;;;;26.63;18.30;;;15.10;99.90;;;;;;5000589;28;20026;-60
2021/08/23 01:57:03;;;;;;;24.95;16.27;;;15.10;99.90;;;;;;4997977;28;20036;-61
2021/08/23 01:59:29;;;;;;;25.17;17.15;;;15.00;99.90;;;;;;5002518;28;20038;-60
2021/08/23 02:01:54;;;;;;;24.10;16.23;;;15.00;99.90;;;;;;4996388;28;20050;-60
2021/08/23 02:04:20;;;;;;;24.25;17.05;;;15.00;99.90;;;;;;4996966;28;20046;-58
2021/08/23 02:06:45;;;;;;;22.92;17.38;;;15.10;99.90;;;;;;4998728;28;20113;-61
2021/08/23 02:09:11;;;;;;;24.05;16.60;;;15.00;99.90;;;;;;4997038;28;20041;-59
2021/08/23 02:11:36;;;;;;;33.70;17.75;;;15.00;99.90;;;;;;4999917;28;20490;-60
2021/08/23 02:14:02;;;;;;;25.17;15.90;;;14.90;99.90;;;;;;5004751;28;20025;-58
2021/08/23 02:16:28;;;;;;;29.15;16.20;;;14.90;99.90;;;;;;4993735;28;20030;-60
2021/08/23 02:18:53;;;;;;;27.23;17.00;;;14.90;99.90;;;;;;5002266;28;20022;-55
2021/08/23 02:21:20;;;;;;;24.38;15.57;;;14.90;99.90;;;;;;5001129;28;20125;-60
2021/08/23 02:23:51;;;;;;;26.98;16.42;;;14.90;99.90;;;;;;4998870;28;20053;-59
2021/08/23 02:26:16;;;;;;;21.80;15.30;;;14.80;99.90;;;;;;5002453;28;20049;-55
2021/08/23 02:28:42;;;;;;;22.70;15.52;;;14.80;99.90;;;;;;5003973;28;20506;-59
2021/08/23 02:31:07;;;;;;;28.30;15.63;;;14.90;99.90;;;;;;5002792;28;20505;-60
2021/08/23 02:33:33;;;;;;;19.27;14.52;;;14.90;99.90;;;;;;5005413;28;20065;-61
2021/08/23 02:35:58;;;;;;;25.02;14.55;;;14.90;99.90;;;;;;5001232;28;20029;-60
2021/08/23 02:38:24;;;;;;;22.50;14.38;;;15.00;99.90;;;;;;4999190;28;20030;-60
2021/08/23 02:40:49;;;;;;;21.27;14.25;;;15.00;99.90;;;;;;5005063;28;20454;-58
2021/08/23 02:43:16;;;;;;;20.17;14.43;;;15.00;99.90;;;;;;4996143;28;20541;-58
2021/08/23 02:45:41;;;;;;;21.98;14.05;;;15.00;99.90;;;;;;5001758;28;20034;-61
2021/08/23 02:48:07;;;;;;;21.38;14.82;;;14.90;99.90;;;;;;4993878;28;20141;-60
2021/08/23 02:50:32;;;;;;;19.00;13.65;;;15.00;99.90;;;;;;4997833;28;20040;-59
2021/08/23 02:52:58;;;;;;;20.27;12.88;;;15.10;99.90;;;;;;5001444;28;20033;-59
2021/08/23 02:55:23;;;;;;;18.13;12.95;;;15.10;99.90;;;;;;5001806;28;20026;-59
2021/08/23 02:57:49;;;;;;;20.55;13.77;;;15.10;99.90;;;;;;4996737;28;20041;-59
2021/08/23 03:00:15;;;;;;;18.25;13.43;;;15.10;99.90;;;;;;4997150;28;20549;-60
2021/08/23 03:02:40;;;;;;;25.10;12.07;;;15.10;99.90;;;;;;5000489;28;20033;-60
2021/08/23 03:05:06;;;;;;;16.00;12.15;;;15.10;99.90;;;;;;5000691;28;20398;-59
2021/08/23 03:07:32;;;;;;;16.40;11.88;;;15.10;99.90;;;;;;4995360;28;20101;-58
2021/08/23 03:09:57;;;;;;;16.70;11.45;;;15.10;99.90;;;;;;4998697;28;20397;-60
2021/08/23 03:12:24;;;;;;;16.92;11.88;;;15.20;99.90;;;;;;5004422;28;20036;-59
2021/08/23 03:14:49;;;;;;;20.95;11.38;;;15.20;99.90;;;;;;5002305;28;20572;-61
2021/08/23 03:17:15;;;;;;;16.85;12.15;;;15.20;99.90;;;;;;5001437;28;20050;-61
2021/08/23 03:19:41;;;;;;;19.38;13.32;;;15.20;99.90;;;;;;5000016;28;20085;-60
2021/08/23 03:22:06;;;;;;;19.83;13.15;;;15.30;99.90;;;;;;4999255;28;20112;-59
2021/08/23 03:24:32;;;;;;;20.63;15.23;;;15.30;99.90;;;;;;5001688;28;20034;-59
2021/08/23 03:26:58;;;;;;;21.08;14.93;;;15.30;99.90;;;;;;4999691;28;20026;-60
2021/08/23 03:29:24;;;;;;;21.23;12.80;;;15.30;99.90;;;;;;4997300;28;20041;-61
2021/08/23 03:31:49;;;;;;;22.65;14.60;;;15.30;99.90;;;;;;4997065;28;20049;-61
2021/08/23 03:34:15;;;;;;;25.13;13.90;;;15.20;99.90;;;;;;4998458;28;20089;-61
2021/08/23 03:36:45;;;;;;;24.02;14.32;;;15.20;99.90;;;;;;4997838;28;20030;-58
2021/08/23 03:39:11;;;;;;;19.50;15.35;;;15.20;99.90;;;;;;5005805;28;20105;-60
2021/08/23 03:41:37;;;;;;;26.65;16.23;;;15.10;99.90;;;;;;5005323;28;21443;-61
2021/08/23 03:44:03;;;;;;;20.92;14.25;;;15.10;99.90;;;;;;4997024;28;20413;-60
2021/08/23 03:46:32;;;;;;;18.55;14.95;;;15.20;99.90;;;;;;5003646;28;20026;-59
2021/08/23 03:49:02;;;;;;;20.83;15.43;;;15.30;99.90;;;;;;4994658;28;20054;-60
2021/08/23 03:51:28;;;;;;;24.52;15.77;;;15.20;99.90;;;;;;5004847;28;20032;-60
2021/08/23 03:53:54;;;;;;;23.55;15.65;;;15.20;99.90;;;;;;4999053;28;20329;-60
2021/08/23 03:56:20;;;;;;;25.35;17.50;;;15.20;99.90;;;;;;4998633;28;20024;-60
2021/08/23 03:58:45;;;;;;;23.80;15.07;;;15.20;99.90;;;;;;4998165;28;20065;-60
2021/08/23 04:01:11;;;;;;;21.90;14.18;;;15.30;99.90;;;;;;5002380;28;20109;-59
2021/08/23 04:03:37;;;;;;;22.50;15.07;;;15.40;99.90;;;;;;4997354;28;20077;-60
2021/08/23 04:06:02;;;;;;;26.10;15.95;;;15.40;99.90;;;;;;5000653;28;20100;-60
2021/08/23 04:08:28;;;;;;;20.85;15.85;;;15.40;99.90;;;;;;5000387;28;20041;-61
2021/08/23 04:10:53;;;;;;;21.80;15.18;;;15.40;99.90;;;;;;4996320;28;20042;-57
2021/08/23 04:13:19;;;;;;;23.42;15.55;;;15.40;99.90;;;;;;4998705;28;20061;-59
2021/08/23 04:15:48;;;;;;;23.25;16.25;;;15.40;99.90;;;;;;5000790;28;20037;-60
2021/08/23 04:18:14;;;;;;;23.10;15.75;;;15.30;99.90;;;;;;4998614;28;20486;-60
2021/08/23 04:20:41;;;;;;;23.83;17.38;;;15.30;99.90;;;;;;5000812;28;20482;-60
2021/08/23 04:23:06;;;;;;;21.70;15.50;;;15.30;99.90;;;;;;5002264;28;20029;-60
2021/08/23 04:25:32;;;;;;;22.27;15.95;;;15.30;99.90;;;;;;5005953;28;20572;-58
2021/08/23 04:27:57;;;;;;;26.27;16.77;;;15.30;99.90;;;;;;4998921;28;20026;-59
2021/08/23 04:30:23;;;;;;;21.67;15.43;;;15.30;99.90;;;;;;4997603;28;20465;-60
2021/08/23 04:32:49;;;;;;;25.60;16.45;;;15.30;99.90;;;;;;5002756;28;20034;-56
2021/08/23 04:35:15;;;;;;;24.58;15.38;;;15.20;99.90;;;;;;4996425;28;20030;-61
2021/08/23 04:37:40;;;;;;;37.25;17.80;;;15.20;99.90;;;;;;4997201;28;20053;-59
2021/08/23 04:40:07;;;;;;;22.25;16.83;;;15.20;99.90;;;;;;5003146;28;20030;-57
2021/08/23 04:42:34;;;;;;;26.85;17.02;;;15.20;99.90;;;;;;5000575;28;20113;-61
2021/08/23 04:44:59;;;;;;;26.00;17.23;;;15.30;99.90;;;;;;5000866;28;20451;-60
2021/08/23 04:47:25;;;;;;;26.77;14.93;;;15.30;99.90;;;;;;5001903;28;20069;-61
2021/08/23 04:49:50;;;;;;;26.10;16.67;;;15.40;99.90;;;;;;5003077;28;20405;-61
2021/08/23 04:52:16;;;;;;;19.20;14.55;;;15.50;99.90;;;;;;5007315;28;20033;-61
2021/08/23 04:54:42;;;;;;;18.63;13.43;;;15.50;99.90;;;;;;5013055;28;20336;-61
2021/08/23 04:57:07;;;;;;;24.23;15.70;;;15.60;99.90;;;;;;5010770;28;20030;-60
2021/08/23 04:59:33;;;;;;;24.50;16.40;;;15.60;99.90;;;;;;5009968;28;20526;-62
2021/08/23 05:01:58;;;;;;;29.05;18.15;;;15.70;99.90;;;;;;5015821;28;20030;-63
2021/08/23 05:04:24;;;;;;;25.85;16.42;;;15.70;99.90;;;;;;5003501;28;20038;-60
2021/08/23 05:06:49;;;;;;;22.95;15.90;;;15.80;99.90;;;;;;5004942;28;20031;-62
2021/08/23 05:09:15;;;;;;;27.75;15.93;;;15.80;99.90;;;;;;5008420;28;20045;-61
2021/08/23 05:11:40;;;;;;;27.98;17.27;;;15.80;99.90;;;;;;5002383;28;20061;-62
2021/08/23 05:14:06;;;;;;;26.08;16.75;;;15.70;99.90;;;;;;5005780;28;20034;-63
2021/08/23 05:16:32;;;;;;;26.75;18.52;;;15.70;99.90;;;;;;4999862;28;20029;-58
2021/08/23 05:18:57;;;;;;;27.05;17.80;;;15.60;99.90;;;;;;5005454;28;20473;-63
2021/08/23 05:21:23;;;;;;;32.13;20.13;;;15.60;99.90;;;;;;5001589;28;20026;-61
2021/08/23 05:23:48;;;;;;;26.83;18.13;;;15.70;99.90;;;;;;5003622;28;20412;-61
2021/08/23 05:26:14;;;;;;;27.45;17.77;;;15.70;99.90;;;;;;5001257;28;20511;-60
2021/08/23 05:28:39;;;;;;;27.73;19.50;;;15.80;99.90;;;;;;5013606;28;20022;-59
2021/08/23 05:31:05;;;;;;;27.40;18.98;;;15.80;99.90;;;;;;5013971;28;20034;-62
2021/08/23 05:33:31;;;;;;;27.00;18.05;;;15.80;99.90;;;;;;4997341;28;20087;-60
2021/08/23 05:35:56;;;;;;;24.30;17.80;;;15.90;99.90;;;;;;5004189;28;20398;-61
2021/08/23 05:38:22;;;;;;;24.85;18.55;;;16.00;99.90;;;;;;5003799;28;20584;-60
2021/08/23 05:40:47;;;;;;;28.13;18.77;;;16.10;99.90;;;;;;4997692;28;20058;-63
2021/08/23 05:43:13;;;;;;;26.13;19.00;;;16.10;99.90;;;;;;5002824;28;20056;-60
2021/08/23 05:45:42;;;;;;;27.13;18.95;;;16.10;99.90;;;;;;5012676;28;20088;-60
2021/08/23 05:48:08;;;;;;;22.23;17.80;;;16.10;99.90;;;;;;4993081;28;20034;-61
2021/08/23 05:50:34;;;;;;;27.77;19.85;;;16.20;99.90;;;;;;5001050;28;20019;-59
2021/08/23 05:52:59;;;;;;;32.30;18.77;;;16.30;99.90;;;;;;4993907;28;20410;-62
2021/08/23 05:55:25;;;;;;;34.22;19.80;;;16.30;99.90;;;;;;4995036;28;20070;-59
2021/08/23 05:57:50;;;;;;;26.65;18.95;;;16.40;99.90;;;;;;5006461;28;20033;-63
2021/08/23 06:00:17;;;;;;;25.65;18.60;;;16.40;99.90;;;;;;4994500;28;20026;-58
2021/08/23 06:02:43;;;;;;;27.40;20.35;;;16.50;99.90;;;;;;5000998;28;20367;-57
2021/08/23 06:05:11;;;;;;;30.10;21.30;;;16.60;99.90;;;;;;4994026;28;20033;-62
2021/08/23 06:07:36;;;;;;;27.63;19.65;;;16.60;99.90;;;;;;4994391;28;20549;-59
2021/08/23 06:10:03;;;;;;;33.88;22.13;;;16.60;99.90;;;;;;4994011;28;20121;-59
2021/08/23 06:12:29;;;;;;;34.67;22.48;;;16.70;99.90;;;;;;4996249;28;20032;-59
2021/08/23 06:14:55;;;;;;;27.80;18.90;;;16.80;99.90;;;;;;5010866;28;20128;-62
2021/08/23 06:17:20;;;;;;;30.27;21.92;;;16.90;99.90;;;;;;4995795;28;20538;-60
2021/08/23 06:19:46;;;;;;;27.48;18.58;;;16.90;99.90;;;;;;4997646;28;20405;-59
2021/08/23 06:22:12;;;;;;;27.17;17.92;;;17.00;99.90;;;;;;5007267;28;20033;-59
2021/08/23 06:24:38;;;;;;;28.95;19.30;;;17.10;99.90;;;;;;4993875;28;20042;-63
2021/08/23 06:27:04;;;;;;;43.25;24.42;;;17.10;99.90;;;;;;5005630;28;20030;-59
2021/08/23 06:29:29;;;;;;;33.50;20.98;;;17.20;99.90;;;;;;4993685;28;20046;-62
2021/08/23 06:31:55;;;;;;;36.78;23.55;;;17.20;99.90;;;;;;4995645;28;20041;-62
2021/08/23 06:34:20;;;;;;;37.17;24.08;;;17.30;99.90;;;;;;4998122;28;20027;-62
2021/08/23 06:36:46;;;;;;;38.28;25.08;;;17.30;99.90;;;;;;4993664;28;20129;-59
2021/08/23 06:39:12;;;;;;;36.70;23.08;;;17.30;99.90;;;;;;4994142;28;20022;-61
2021/08/23 06:41:38;;;;;;;38.80;24.27;;;17.30;99.90;;;;;;5010495;28;20034;-62
2021/08/23 06:44:04;;;;;;;38.75;25.25;;;17.30;99.90;;;;;;5011429;28;20030;-62
2021/08/23 06:46:30;;;;;;;40.40;24.23;;;17.30;99.90;;;;;;5013276;28;20026;-58
2021/08/23 06:48:55;;;;;;;42.40;22.35;;;17.40;99.90;;;;;;5010161;28;20033;-61
2021/08/23 06:51:23;;;;;;;32.70;21.77;;;17.50;99.90;;;;;;5012975;28;20164;-61
2021/08/23 06:53:49;;;;;;;29.90;19.58;;;17.50;99.90;;;;;;5012691;28;20026;-60
2021/08/23 06:56:16;;;;;;;32.08;21.02;;;17.60;99.90;;;;;;5013333;28;20022;-63
2021/08/23 06:58:41;;;;;;;28.63;21.48;;;17.70;99.90;;;;;;5011158;28;20117;-62
2021/08/23 07:01:07;;;;;;;28.10;20.52;;;17.70;99.90;;;;;;5010862;28;20173;-60
2021/08/23 07:03:35;;;;;;;33.60;23.20;;;17.70;99.90;;;;;;5009583;28;20042;-62
2021/08/23 07:06:01;;;;;;;33.42;21.08;;;17.70;99.90;;;;;;5009969;28;20484;-63
2021/08/23 07:08:26;;;;;;;36.30;21.05;;;17.80;99.90;;;;;;5004883;28;20041;-64
2021/08/23 07:10:52;;;;;;;29.17;21.05;;;17.80;99.90;;;;;;5006514;28;20034;-61
2021/08/23 07:13:17;;;;;;;28.35;20.13;;;17.80;99.90;;;;;;5007504;28;20030;-60
2021/08/23 07:15:43;;;;;;;28.98;20.83;;;17.90;99.90;;;;;;5008167;28;20038;-64
2021/08/23 07:18:09;;;;;;;28.90;20.88;;;17.90;99.90;;;;;;5010538;28;20026;-64
2021/08/23 07:20:35;;;;;;;36.88;21.02;;;17.90;99.90;;;;;;5006087;28;20022;-63
2021/08/23 07:23:00;;;;;;;33.30;22.45;;;18.00;99.90;;;;;;5008110;28;20022;-62
2021/08/23 07:25:26;;;;;;;38.15;23.42;;;17.90;99.90;;;;;;5011809;28;20029;-61
2021/08/23 07:27:51;;;;;;;27.85;19.60;;;17.90;99.90;;;;;;5008443;28;20040;-63
2021/08/23 07:30:17;;;;;;;29.80;22.00;;;17.90;99.90;;;;;;5008675;28;20129;-63
2021/08/23 07:32:43;;;;;;;33.70;22.52;;;18.00;99.90;;;;;;5015780;28;20044;-63
2021/08/23 07:35:09;;;;;;;30.73;21.67;;;18.00;99.90;;;;;;5011365;28;20105;-63
2021/08/23 07:37:37;;;;;;;32.85;23.10;;;18.00;99.90;;;;;;5011759;28;20450;-63
2021/08/23 07:40:06;;;;;;;30.90;21.65;;;18.10;99.90;;;;;;5011207;28;20037;-63
2021/08/23 07:42:31;;;;;;;30.92;21.08;;;18.10;99.90;;;;;;5011187;28;20054;-62
2021/08/23 07:44:57;;;;;;;33.55;20.55;;;18.20;99.90;;;;;;5011519;28;20057;-63
2021/08/23 07:47:22;;;;;;;34.42;22.35;;;18.30;99.90;;;;;;5009939;28;20036;-63
2021/08/23 07:49:48;;;;;;;32.33;24.25;;;18.40;99.90;;;;;;5011816;28;20034;-63
2021/08/23 07:52:13;;;;;;;39.20;24.08;;;18.50;99.90;;;;;;5009535;28;20038;-62
2021/08/23 07:54:39;;;;;;;32.97;22.98;;;18.50;99.90;;;;;;5009012;28;20109;-61
2021/08/23 07:57:05;;;;;;;35.55;24.55;;;18.60;99.90;;;;;;5008069;28;20053;-60
2021/08/23 07:59:30;;;;;;;37.25;24.70;;;18.60;99.90;;;;;;5011057;28;20101;-61
2021/08/23 08:01:56;;;;;;;32.90;23.80;;;18.70;99.90;;;;;;5010466;28;20436;-60
2021/08/23 08:04:21;;;;;;;36.08;22.48;;;18.70;99.90;;;;;;5013237;28;20737;-63
2021/08/23 08:06:47;;;;;;;39.28;25.20;;;18.80;99.90;;;;;;5010990;28;20084;-63
2021/08/23 08:09:13;;;;;;;34.42;24.42;;;18.80;99.90;;;;;;5016338;28;20072;-64
2021/08/23 08:11:39;;;;;;;39.78;25.50;;;18.90;99.90;;;;;;5010005;28;20041;-62
2021/08/23 08:14:04;;;;;;;37.03;25.75;;;18.80;99.90;;;;;;5010555;28;20088;-61
2021/08/23 08:16:30;;;;;;;34.80;24.88;;;18.80;99.90;;;;;;5009434;28;20036;-60
2021/08/23 08:18:55;;;;;;;39.03;26.45;;;18.90;99.90;;;;;;5010406;28;20036;-62
2021/08/23 08:21:22;;;;;;;46.15;28.65;;;18.80;99.90;;;;;;5009549;28;20026;-60
2021/08/23 08:23:53;;;;;;;42.10;26.65;;;18.80;99.90;;;;;;5010444;28;20045;-59
2021/08/23 08:26:19;;;;;;;43.67;25.70;;;18.70;99.90;;;;;;5010499;28;20037;-62
2021/08/23 08:28:45;;;;;;;46.17;28.45;;;18.70;99.90;;;;;;5013735;28;20034;-61
2021/08/23 08:31:10;;;;;;;39.65;25.77;;;18.90;99.90;;;;;;5005382;28;20037;-63
2021/08/23 08:33:36;;;;;;;48.25;28.60;;;18.90;99.90;;;;;;5010179;28;20401;-63
2021/08/23 08:36:02;;;;;;;48.50;28.55;;;18.90;99.90;;;;;;5011295;28;20105;-60
2021/08/23 08:38:27;;;;;;;46.13;27.02;;;18.90;99.90;;;;;;5010824;28;20022;-63
2021/08/23 08:40:58;;;;;;;41.65;28.20;;;19.00;99.90;;;;;;5011385;28;20088;-63
2021/08/23 08:43:24;;;;;;;39.50;25.77;;;19.10;99.90;;;;;;5010655;28;20113;-60
2021/08/23 08:45:50;;;;;;;36.38;26.05;;;19.20;99.90;;;;;;5006517;28;20540;-59
2021/08/23 08:48:18;;;;;;;38.20;26.85;;;19.40;99.90;;;;;;5005023;28;20038;-62
2021/08/23 08:50:44;;;;;;;46.42;25.15;;;19.40;99.90;;;;;;5009803;28;20076;-62
2021/08/23 08:53:09;;;;;;;37.92;25.25;;;19.40;99.90;;;;;;5010580;28;20038;-61
2021/08/23 08:55:36;;;;;;;41.03;26.88;;;19.40;99.90;;;;;;5005814;28;20401;-63
2021/08/23 08:58:05;;;;;;;38.80;25.05;;;19.40;99.90;;;;;;5002735;28;20027;-63
2021/08/23 09:00:40;;;;;;;45.25;28.58;;;19.30;99.90;;;;;;5006168;28;20026;-61
2021/08/23 09:03:07;;;;;;;35.90;23.20;;;19.20;99.90;;;;;;5009835;28;20022;-64
2021/08/23 09:05:42;;;;;;;37.72;25.58;;;19.20;99.90;;;;;;5011076;28;20026;-63
2021/08/23 09:08:08;;;;;;;33.55;23.02;;;19.30;99.90;;;;;;5011319;28;20030;-63
2021/08/23 09:10:39;;;;;;;35.38;23.75;;;19.40;99.90;;;;;;5006129;28;20030;-62
2021/08/23 09:13:13;;;;;;;31.48;21.88;;;19.40;99.90;;;;;;5003189;28;20037;-63
2021/08/23 09:15:52;;;;;;;29.67;20.55;;;19.50;99.90;;;;;;5006241;28;20409;-62
2021/08/23 09:18:27;;;;;;;33.97;21.33;;;19.60;99.90;;;;;;5006469;28;20030;-62
2021/08/23 09:21:06;;;;;;;35.28;20.27;;;19.80;99.90;;;;;;5002999;28;20034;-60
2021/08/23 09:23:37;;;;;;;34.00;21.27;;;19.80;99.90;;;;;;5010373;28;20030;-62
2021/08/23 09:26:15;;;;;;;36.53;22.63;;;19.70;99.90;;;;;;5004669;28;20033;-62
2021/08/23 09:28:53;;;;;;;32.65;21.35;;;19.60;99.90;;;;;;5000925;28;20041;-63
2021/08/23 09:31:24;;;;;;;30.58;22.27;;;19.60;99.90;;;;;;5010961;28;20022;-60
2021/08/23 09:33:50;;;;;;;38.10;24.45;;;19.60;99.90;;;;;;5006799;28;20026;-62
2021/08/23 09:36:19;;;;;;;37.95;25.30;;;19.40;99.90;;;;;;5009829;28;20030;-60
2021/08/23 09:39:00;;;;;;;36.88;25.48;;;19.20;99.90;;;;;;5011373;28;20550;-61
2021/08/23 09:41:26;;;;;;;33.65;23.35;;;19.10;99.90;;;;;;5006589;28;20026;-62
2021/08/23 09:44:07;;;;;;;33.67;24.23;;;19.10;99.90;;;;;;5012554;28;20052;-63
2021/08/23 09:46:34;;;;;;;33.65;23.42;;;19.20;99.90;;;;;;5006991;28;20049;-62
2021/08/23 09:49:08;;;;;;;31.00;20.73;;;19.20;99.90;;;;;;5013922;28;20375;-63
2021/08/23 09:51:37;;;;;;;31.52;20.75;;;19.30;99.90;;;;;;5012655;28;20156;-62
2021/08/23 09:54:23;;;;;;;36.03;24.85;;;19.30;99.90;;;;;;5013807;28;20041;-62
2021/08/23 09:56:53;;;;;;;39.08;23.45;;;19.20;99.90;;;;;;5011577;28;20506;-62
2021/08/23 09:59:20;;;;;;;37.47;26.45;;;19.10;99.90;;;;;;5011806;28;20091;-61
2021/08/23 10:01:48;;;;;;;36.38;25.75;;;19.10;99.90;;;;;;5013104;28;20026;-62
2021/08/23 10:04:14;;;;;;;34.22;24.50;;;18.90;99.90;;;;;;5012062;28;20038;-62
2021/08/23 10:06:42;;;;;;;34.80;23.13;;;18.80;99.90;;;;;;5011604;28;20054;-62
2021/08/23 10:09:09;;;;;;;34.38;22.42;;;18.80;99.90;;;;;;5008304;28;20376;-59
2021/08/23 10:11:36;;;;;;;33.83;25.38;;;18.90;99.90;;;;;;5015204;28;20030;-62
2021/08/23 10:14:03;;;;;;;27.85;21.65;;;18.90;99.90;;;;;;5012279;28;20057;-61
2021/08/23 10:16:30;;;;;;;29.73;21.30;;;19.10;99.90;;;;;;5013621;28;20022;-58
2021/08/23 10:18:57;;;;;;;29.05;19.88;;;19.20;99.90;;;;;;5012018;28;20494;-61
2021/08/23 10:21:24;;;;;;;27.55;20.77;;;19.40;99.90;;;;;;5010410;28;20108;-60
2021/08/23 10:23:51;;;;;;;33.47;21.25;;;19.40;99.90;;;;;;5010754;28;20399;-60
2021/08/23 10:26:17;;;;;;;29.52;22.23;;;19.30;99.90;;;;;;5013209;28;20030;-62
2021/08/23 10:28:48;;;;;;;33.80;22.60;;;19.20;99.90;;;;;;5011109;28;20040;-61
2021/08/23 10:31:15;;;;;;;34.20;23.65;;;19.20;99.90;;;;;;5014268;28;20512;-62
2021/08/23 10:33:42;;;;;;;38.55;25.85;;;19.30;99.90;;;;;;5000054;28;20553;-62
2021/08/23 10:36:11;;;;;;;39.15;25.98;;;19.40;99.90;;;;;;5011995;28;20026;-61
2021/08/23 10:38:38;;;;;;;34.80;25.48;;;19.60;99.90;;;;;;5011665;28;20076;-61
2021/08/23 10:41:11;;;;;;;35.58;25.05;;;20.00;99.90;;;;;;5010469;28;20408;-62
2021/08/23 10:43:57;;;;;;;33.45;24.15;;;20.30;99.90;;;;;;5014265;28;20100;-60
2021/08/23 10:46:27;;;;;;;34.13;24.05;;;20.60;99.90;;;;;;5005322;28;20038;-61
2021/08/23 10:48:55;;;;;;;35.78;23.90;;;20.50;99.90;;;;;;5001428;28;20042;-62
2021/08/23 10:51:38;;;;;;;32.85;23.13;;;20.50;99.90;;;;;;5007508;28;20116;-63
2021/08/23 10:54:36;;;;;;;31.45;20.52;;;20.70;99.90;;;;;;5005041;28;20026;-60
2021/08/23 10:57:01;;;;;;;32.20;21.60;;;20.80;99.90;;;;;;5008491;28;20079;-62
2021/08/23 11:00:07;;;;;;;27.92;21.65;;;20.70;99.90;;;;;;5009073;28;20021;-60
2021/08/23 11:02:35;;;;;;;31.88;22.88;;;20.60;99.90;;;;;;4989078;28;20105;-62
2021/08/23 11:05:07;;;;;;;26.63;19.35;;;20.60;99.90;;;;;;5013573;28;20470;-62
2021/08/23 11:07:35;;;;;;;27.88;21.33;;;20.60;99.90;;;;;;5007986;28;20032;-60
2021/08/23 11:10:12;;;;;;;24.10;18.23;;;20.70;99.90;;;;;;5006507;28;20018;-60
2021/08/23 11:12:40;;;;;;;27.55;19.38;;;21.00;99.90;;;;;;5012225;28;20069;-63
2021/08/23 11:15:20;;;;;;;22.73;16.48;;;21.20;99.90;;;;;;5004061;28;20128;-62
2021/08/23 11:17:48;;;;;;;20.45;16.25;;;21.30;99.90;;;;;;5002251;28;20477;-62
2021/08/23 11:20:19;;;;;;;21.70;16.70;;;21.20;99.90;;;;;;5000285;28;20088;-62
2021/08/23 11:22:58;;;;;;;22.13;15.40;;;21.00;99.90;;;;;;5000441;28;20026;-61
2021/08/23 11:25:35;;;;;;;19.77;14.23;;;20.80;99.90;;;;;;5002066;28;20409;-62
2021/08/23 11:28:04;;;;;;;16.42;14.15;;;20.70;99.90;;;;;;5007230;28;21492;-63
2021/08/23 11:30:32;;;;;;;20.58;14.90;;;20.80;99.90;;;;;;5002104;28;20044;-61
2021/08/23 11:32:58;;;;;;;17.73;14.40;;;21.20;99.90;;;;;;4998443;28;20035;-61
2021/08/23 11:35:24;;;;;;;17.80;14.95;;;21.50;99.90;;;;;;5006508;28;20038;-61
2021/08/23 11:37:57;;;;;;;16.58;13.95;;;21.70;99.90;;;;;;5001200;28;20033;-63
2021/08/23 11:40:23;;;;;;;19.13;12.87;;;21.70;99.90;;;;;;5004176;28;20030;-63
2021/08/23 11:42:53;;;;;;;18.15;15.30;;;22.00;99.90;;;;;;5001131;28;20572;-58
2021/08/23 11:45:30;;;;;;;18.50;14.68;;;22.30;99.90;;;;;;4999524;28;20027;-62
2021/08/23 11:47:56;;;;;;;21.80;14.07;;;22.40;99.90;;;;;;5004603;28;20113;-60
2021/08/23 11:50:22;;;;;;;20.35;15.40;;;22.30;99.90;;;;;;5005816;28;20050;-59
2021/08/23 11:52:49;;;;;;;16.60;12.50;;;22.30;99.90;;;;;;5000907;28;20039;-62
2021/08/23 11:55:38;;;;;;;18.58;13.88;;;22.10;99.90;;;;;;5000494;28;20114;-60
2021/08/23 11:58:08;;;;;;;16.98;11.55;;;21.80;99.90;;;;;;4995856;28;20085;-62
2021/08/23 12:00:36;;;;;;;16.05;11.60;;;21.70;99.90;;;;;;4996571;28;20109;-63
2021/08/23 12:03:15;;;;;;;12.63;10.50;;;22.00;99.90;;;;;;4998636;28;20081;-59
2021/08/23 12:05:46;;;;;;;15.68;10.30;;;22.20;99.90;;;;;;4997051;28;20033;-61
2021/08/23 12:08:31;;;;;;;15.23;12.45;;;22.30;99.90;;;;;;5003617;28;20034;-61
2021/08/23 12:10:59;;;;;;;20.60;13.50;;;22.20;99.90;;;;;;4996766;28;20411;-57
2021/08/23 12:13:43;;;;;;;18.73;13.63;;;22.00;99.90;;;;;;4995521;28;20486;-61
2021/08/23 12:16:16;;;;;;;15.50;13.77;;;22.00;99.90;;;;;;4999891;28;20034;-62
2021/08/23 12:18:45;;;;;;;20.67;15.35;;;21.90;99.90;;;;;;5004396;28;20057;-61
2021/08/23 12:21:14;;;;;;;19.38;14.35;;;22.10;99.90;;;;;;5000601;28;20049;-61
2021/08/23 12:23:46;;;;;;;17.40;14.00;;;22.10;99.90;;;;;;5005427;28;20398;-58
2021/08/23 12:26:15;;;;;;;15.52;13.32;;;22.10;99.90;;;;;;5001420;28;20594;-62
2021/08/23 12:28:56;;;;;;;14.10;11.68;;;21.90;99.90;;;;;;4998928;28;20686;-62
2021/08/23 12:31:22;;;;;;;17.38;12.77;;;21.80;99.90;;;;;;5001645;28;20030;-60